sensor_id;sensor_type;location;lat;lon;timestamp;P1;durP1;ratioP1;P2;durP2;ratioP2
1346;SDS011;667;48.796;9.480;2022-12-15T00:02:16;41.00;;;27.25;;
1346;SDS011;667;48.796;9.480;2022-12-15T00:05:01;39.97;;;26.60;;
1346;SDS011;667;48.796;9.480;2022-12-15T00:07:45;40.58;;;25.73;;
1346;SDS011;667;48.796;9.480;2022-12-15T00:10:29;40.10;;;25.13;;
1346;SDS011;667;48.796;9.480;2022-12-15T00:13:13;38.53;;;26.08;;
1346;SDS011;667;48.796;9.480;2022-12-15T00:15:57;37.97;;;24.40;;
1346;SDS011;667;48.796;9.480;2022-12-15T00:18:41;35.25;;;22.85;;
1346;SDS011;667;48.796;9.480;2022-12-15T00:21:25;48.17;;;32.47;;
1346;SDS011;667;48.796;9.480;2022-12-15T00:24:09;38.55;;;25.65;;
1346;SDS011;667;48.796;9.480;2022-12-15T00:26:56;36.70;;;25.80;;
1346;SDS011;667;48.796;9.480;2022-12-15T00:29:41;35.33;;;24.83;;
1346;SDS011;667;48.796;9.480;2022-12-15T00:32:25;37.42;;;26.08;;
1346;SDS011;667;48.796;9.480;2022-12-15T00:35:09;38.28;;;25.02;;
1346;SDS011;667;48.796;9.480;2022-12-15T00:37:53;38.15;;;25.92;;
1346;SDS011;667;48.796;9.480;2022-12-15T00:40:37;39.38;;;26.42;;
1346;SDS011;667;48.796;9.480;2022-12-15T00:43:02;40.97;;;28.13;;
1346;SDS011;667;48.796;9.480;2022-12-15T00:45:28;41.60;;;28.10;;
1346;SDS011;667;48.796;9.480;2022-12-15T00:48:12;40.00;;;27.35;;
1346;SDS011;667;48.796;9.480;2022-12-15T00:50:38;37.57;;;26.17;;
1346;SDS011;667;48.796;9.480;2022-12-15T00:53:21;38.03;;;27.15;;
1346;SDS011;667;48.796;9.480;2022-12-15T00:56:06;38.88;;;26.50;;
1346;SDS011;667;48.796;9.480;2022-12-15T00:58:52;38.53;;;25.67;;
1346;SDS011;667;48.796;9.480;2022-12-15T01:01:36;37.03;;;26.20;;
1346;SDS011;667;48.796;9.480;2022-12-15T01:04:20;44.03;;;27.70;;
1346;SDS011;667;48.796;9.480;2022-12-15T01:07:04;47.45;;;29.00;;
1346;SDS011;667;48.796;9.480;2022-12-15T01:09:48;46.13;;;30.73;;
1346;SDS011;667;48.796;9.480;2022-12-15T01:12:32;43.47;;;29.35;;
1346;SDS011;667;48.796;9.480;2022-12-15T01:15:17;43.50;;;28.60;;
1346;SDS011;667;48.796;9.480;2022-12-15T01:18:01;45.85;;;29.23;;
1346;SDS011;667;48.796;9.480;2022-12-15T01:20:52;43.50;;;27.90;;
1346;SDS011;667;48.796;9.480;2022-12-15T01:23:19;41.15;;;28.10;;
1346;SDS011;667;48.796;9.480;2022-12-15T01:25:45;39.07;;;30.23;;
1346;SDS011;667;48.796;9.480;2022-12-15T01:28:10;41.70;;;27.60;;
1346;SDS011;667;48.796;9.480;2022-12-15T01:30:36;40.10;;;26.20;;
1346;SDS011;667;48.796;9.480;2022-12-15T01:33:01;42.67;;;25.80;;
1346;SDS011;667;48.796;9.480;2022-12-15T01:35:27;42.73;;;28.30;;
1346;SDS011;667;48.796;9.480;2022-12-15T01:37:52;43.17;;;27.27;;
1346;SDS011;667;48.796;9.480;2022-12-15T01:40:21;42.83;;;28.87;;
1346;SDS011;667;48.796;9.480;2022-12-15T01:43:08;41.58;;;28.08;;
1346;SDS011;667;48.796;9.480;2022-12-15T01:48:13;41.50;;;27.30;;
1346;SDS011;667;48.796;9.480;2022-12-15T01:50:46;42.10;;;27.90;;
1346;SDS011;667;48.796;9.480;2022-12-15T01:53:21;47.85;;;29.98;;
1346;SDS011;667;48.796;9.480;2022-12-15T01:55:47;39.37;;;27.80;;
1346;SDS011;667;48.796;9.480;2022-12-15T01:58:13;39.27;;;26.80;;
1346;SDS011;667;48.796;9.480;2022-12-15T02:00:41;35.88;;;24.42;;
1346;SDS011;667;48.796;9.480;2022-12-15T02:03:07;45.05;;;27.50;;
1346;SDS011;667;48.796;9.480;2022-12-15T02:05:34;42.25;;;27.48;;
1346;SDS011;667;48.796;9.480;2022-12-15T02:08:00;41.00;;;26.77;;
1346;SDS011;667;48.796;9.480;2022-12-15T02:10:38;42.28;;;27.20;;
1346;SDS011;667;48.796;9.480;2022-12-15T02:13:09;44.00;;;28.17;;
1346;SDS011;667;48.796;9.480;2022-12-15T02:15:49;40.20;;;26.35;;
1346;SDS011;667;48.796;9.480;2022-12-15T02:21:46;42.78;;;25.77;;
1346;SDS011;667;48.796;9.480;2022-12-15T02:32:30;40.72;;;25.42;;
1346;SDS011;667;48.796;9.480;2022-12-15T02:35:11;41.10;;;25.17;;
1346;SDS011;667;48.796;9.480;2022-12-15T02:37:43;39.33;;;26.20;;
1346;SDS011;667;48.796;9.480;2022-12-15T02:40:09;41.00;;;26.57;;
1346;SDS011;667;48.796;9.480;2022-12-15T02:42:37;39.60;;;26.70;;
1346;SDS011;667;48.796;9.480;2022-12-15T02:45:18;39.97;;;27.23;;
1346;SDS011;667;48.796;9.480;2022-12-15T02:48:51;37.50;;;25.52;;
1346;SDS011;667;48.796;9.480;2022-12-15T03:01:06;43.65;;;26.50;;
1346;SDS011;667;48.796;9.480;2022-12-15T03:03:37;42.47;;;25.13;;
1346;SDS011;667;48.796;9.480;2022-12-15T03:06:03;43.63;;;27.13;;
1346;SDS011;667;48.796;9.480;2022-12-15T03:08:29;39.25;;;25.73;;
1346;SDS011;667;48.796;9.480;2022-12-15T03:10:55;39.83;;;25.20;;
1346;SDS011;667;48.796;9.480;2022-12-15T03:13:22;38.17;;;25.35;;
1346;SDS011;667;48.796;9.480;2022-12-15T03:15:49;33.97;;;23.45;;
1346;SDS011;667;48.796;9.480;2022-12-15T03:18:14;36.88;;;25.15;;
1346;SDS011;667;48.796;9.480;2022-12-15T03:20:40;37.42;;;23.95;;
1346;SDS011;667;48.796;9.480;2022-12-15T03:23:06;39.07;;;25.57;;
1346;SDS011;667;48.796;9.480;2022-12-15T03:25:32;34.90;;;24.07;;
1346;SDS011;667;48.796;9.480;2022-12-15T03:27:57;40.37;;;25.90;;
1346;SDS011;667;48.796;9.480;2022-12-15T03:30:23;36.53;;;24.87;;
1346;SDS011;667;48.796;9.480;2022-12-15T03:32:48;37.50;;;25.20;;
1346;SDS011;667;48.796;9.480;2022-12-15T03:35:14;36.00;;;25.90;;
1346;SDS011;667;48.796;9.480;2022-12-15T03:37:40;34.25;;;22.15;;
1346;SDS011;667;48.796;9.480;2022-12-15T03:40:07;39.92;;;25.48;;
1346;SDS011;667;48.796;9.480;2022-12-15T03:42:33;37.00;;;24.65;;
1346;SDS011;667;48.796;9.480;2022-12-15T03:45:23;38.90;;;24.42;;
1346;SDS011;667;48.796;9.480;2022-12-15T03:47:50;39.53;;;25.48;;
1346;SDS011;667;48.796;9.480;2022-12-15T03:50:18;37.80;;;26.20;;
1346;SDS011;667;48.796;9.480;2022-12-15T03:52:49;36.72;;;25.65;;
1346;SDS011;667;48.796;9.480;2022-12-15T03:55:16;40.50;;;26.15;;
1346;SDS011;667;48.796;9.480;2022-12-15T03:57:42;36.42;;;25.77;;
1346;SDS011;667;48.796;9.480;2022-12-15T04:00:09;36.80;;;24.83;;
1346;SDS011;667;48.796;9.480;2022-12-15T04:02:36;38.80;;;25.95;;
1346;SDS011;667;48.796;9.480;2022-12-15T04:05:02;36.23;;;26.57;;
1346;SDS011;667;48.796;9.480;2022-12-15T04:07:28;34.20;;;23.50;;
1346;SDS011;667;48.796;9.480;2022-12-15T04:09:53;31.87;;;23.40;;
1346;SDS011;667;48.796;9.480;2022-12-15T04:12:19;39.57;;;25.47;;
1346;SDS011;667;48.796;9.480;2022-12-15T04:14:44;41.33;;;24.97;;
1346;SDS011;667;48.796;9.480;2022-12-15T04:17:10;34.57;;;23.40;;
1346;SDS011;667;48.796;9.480;2022-12-15T04:19:36;34.27;;;23.17;;
1346;SDS011;667;48.796;9.480;2022-12-15T04:22:21;34.60;;;23.92;;
1346;SDS011;667;48.796;9.480;2022-12-15T04:24:47;36.83;;;24.83;;
1346;SDS011;667;48.796;9.480;2022-12-15T04:27:32;33.47;;;22.38;;
1346;SDS011;667;48.796;9.480;2022-12-15T04:30:16;36.72;;;23.83;;
1346;SDS011;667;48.796;9.480;2022-12-15T04:33:00;47.22;;;27.77;;
1346;SDS011;667;48.796;9.480;2022-12-15T04:35:45;33.63;;;22.90;;
1346;SDS011;667;48.796;9.480;2022-12-15T04:38:31;33.30;;;23.85;;
1346;SDS011;667;48.796;9.480;2022-12-15T04:41:15;31.90;;;23.88;;
1346;SDS011;667;48.796;9.480;2022-12-15T04:44:01;35.72;;;23.77;;
1346;SDS011;667;48.796;9.480;2022-12-15T04:46:46;41.50;;;25.55;;
1346;SDS011;667;48.796;9.480;2022-12-15T04:49:30;35.75;;;23.98;;
1346;SDS011;667;48.796;9.480;2022-12-15T04:52:14;34.78;;;23.13;;
1346;SDS011;667;48.796;9.480;2022-12-15T04:54:59;33.33;;;22.60;;
1346;SDS011;667;48.796;9.480;2022-12-15T04:57:43;39.50;;;25.20;;
1346;SDS011;667;48.796;9.480;2022-12-15T05:00:27;41.00;;;24.10;;
1346;SDS011;667;48.796;9.480;2022-12-15T05:03:11;40.72;;;26.05;;
1346;SDS011;667;48.796;9.480;2022-12-15T05:05:56;37.92;;;24.75;;
1346;SDS011;667;48.796;9.480;2022-12-15T05:08:40;39.03;;;24.75;;
1346;SDS011;667;48.796;9.480;2022-12-15T05:11:24;38.92;;;25.73;;
1346;SDS011;667;48.796;9.480;2022-12-15T05:14:09;34.45;;;22.55;;
1346;SDS011;667;48.796;9.480;2022-12-15T05:16:53;34.42;;;24.13;;
1346;SDS011;667;48.796;9.480;2022-12-15T05:19:37;40.70;;;24.63;;
1346;SDS011;667;48.796;9.480;2022-12-15T05:22:21;37.90;;;25.17;;
1346;SDS011;667;48.796;9.480;2022-12-15T05:25:05;40.08;;;26.40;;
1346;SDS011;667;48.796;9.480;2022-12-15T05:27:49;35.55;;;24.48;;
1346;SDS011;667;48.796;9.480;2022-12-15T05:30:33;34.90;;;23.02;;
1346;SDS011;667;48.796;9.480;2022-12-15T05:33:17;38.15;;;25.58;;
1346;SDS011;667;48.796;9.480;2022-12-15T05:35:42;43.60;;;25.93;;
1346;SDS011;667;48.796;9.480;2022-12-15T05:38:08;37.50;;;25.60;;
1346;SDS011;667;48.796;9.480;2022-12-15T05:40:34;45.23;;;25.53;;
1346;SDS011;667;48.796;9.480;2022-12-15T05:42:59;32.07;;;23.20;;
1346;SDS011;667;48.796;9.480;2022-12-15T05:45:26;35.83;;;24.50;;
1346;SDS011;667;48.796;9.480;2022-12-15T05:47:52;36.17;;;23.20;;
1346;SDS011;667;48.796;9.480;2022-12-15T05:50:18;38.50;;;24.75;;
1346;SDS011;667;48.796;9.480;2022-12-15T05:52:45;33.08;;;22.83;;
1346;SDS011;667;48.796;9.480;2022-12-15T05:55:11;30.95;;;22.63;;
1346;SDS011;667;48.796;9.480;2022-12-15T05:57:37;37.83;;;25.27;;
1346;SDS011;667;48.796;9.480;2022-12-15T06:00:03;38.00;;;24.40;;
1346;SDS011;667;48.796;9.480;2022-12-15T06:02:29;36.10;;;22.50;;
1346;SDS011;667;48.796;9.480;2022-12-15T06:04:55;39.13;;;23.70;;
1346;SDS011;667;48.796;9.480;2022-12-15T06:07:20;34.77;;;24.47;;
1346;SDS011;667;48.796;9.480;2022-12-15T06:09:46;36.20;;;24.83;;
1346;SDS011;667;48.796;9.480;2022-12-15T06:12:12;34.17;;;23.67;;
1346;SDS011;667;48.796;9.480;2022-12-15T06:14:37;41.40;;;24.67;;
1346;SDS011;667;48.796;9.480;2022-12-15T06:17:03;32.87;;;22.87;;
1346;SDS011;667;48.796;9.480;2022-12-15T06:19:28;38.00;;;24.63;;
1346;SDS011;667;48.796;9.480;2022-12-15T06:21:54;35.17;;;22.87;;
1346;SDS011;667;48.796;9.480;2022-12-15T06:24:19;35.80;;;23.30;;
1346;SDS011;667;48.796;9.480;2022-12-15T06:26:45;39.10;;;23.03;;
1346;SDS011;667;48.796;9.480;2022-12-15T06:29:11;40.60;;;22.85;;
1346;SDS011;667;48.796;9.480;2022-12-15T06:31:38;35.55;;;22.15;;
1346;SDS011;667;48.796;9.480;2022-12-15T06:34:05;34.10;;;22.60;;
1346;SDS011;667;48.796;9.480;2022-12-15T06:36:33;34.20;;;23.10;;
1346;SDS011;667;48.796;9.480;2022-12-15T06:39:00;39.22;;;22.58;;
1346;SDS011;667;48.796;9.480;2022-12-15T06:41:27;36.70;;;22.92;;
1346;SDS011;667;48.796;9.480;2022-12-15T06:43:54;33.42;;;22.40;;
1346;SDS011;667;48.796;9.480;2022-12-15T06:46:20;39.53;;;22.93;;
1346;SDS011;667;48.796;9.480;2022-12-15T06:48:46;33.15;;;22.48;;
1346;SDS011;667;48.796;9.480;2022-12-15T06:51:12;37.57;;;22.70;;
1346;SDS011;667;48.796;9.480;2022-12-15T06:53:40;39.28;;;22.23;;
1346;SDS011;667;48.796;9.480;2022-12-15T06:56:16;38.53;;;23.23;;
1346;SDS011;667;48.796;9.480;2022-12-15T06:58:45;42.75;;;22.75;;
1346;SDS011;667;48.796;9.480;2022-12-15T07:01:15;42.60;;;25.00;;
1346;SDS011;667;48.796;9.480;2022-12-15T07:03:42;41.65;;;23.85;;
1346;SDS011;667;48.796;9.480;2022-12-15T07:06:09;42.10;;;23.83;;
1346;SDS011;667;48.796;9.480;2022-12-15T07:08:36;42.83;;;24.70;;
1346;SDS011;667;48.796;9.480;2022-12-15T07:11:03;44.65;;;25.63;;
1346;SDS011;667;48.796;9.480;2022-12-15T07:13:30;41.25;;;26.05;;
1346;SDS011;667;48.796;9.480;2022-12-15T07:16:03;41.37;;;23.77;;
1346;SDS011;667;48.796;9.480;2022-12-15T07:18:30;39.50;;;20.70;;
1346;SDS011;667;48.796;9.480;2022-12-15T07:21:01;41.70;;;23.47;;
1346;SDS011;667;48.796;9.480;2022-12-15T07:23:31;39.58;;;23.50;;
1346;SDS011;667;48.796;9.480;2022-12-15T07:25:57;39.53;;;23.42;;
1346;SDS011;667;48.796;9.480;2022-12-15T07:28:25;42.55;;;25.20;;
1346;SDS011;667;48.796;9.480;2022-12-15T07:30:51;39.13;;;21.50;;
1346;SDS011;667;48.796;9.480;2022-12-15T07:33:17;42.30;;;24.10;;
1346;SDS011;667;48.796;9.480;2022-12-15T07:35:42;43.20;;;24.90;;
1346;SDS011;667;48.796;9.480;2022-12-15T07:38:17;38.53;;;22.55;;
1346;SDS011;667;48.796;9.480;2022-12-15T07:40:42;42.47;;;24.03;;
1346;SDS011;667;48.796;9.480;2022-12-15T07:43:08;44.50;;;24.60;;
1346;SDS011;667;48.796;9.480;2022-12-15T07:45:33;39.57;;;23.30;;
1346;SDS011;667;48.796;9.480;2022-12-15T07:47:59;43.40;;;25.70;;
1346;SDS011;667;48.796;9.480;2022-12-15T07:50:24;36.77;;;22.30;;
1346;SDS011;667;48.796;9.480;2022-12-15T07:52:50;43.00;;;24.17;;
1346;SDS011;667;48.796;9.480;2022-12-15T07:55:15;40.20;;;24.53;;
1346;SDS011;667;48.796;9.480;2022-12-15T07:57:41;38.60;;;23.97;;
1346;SDS011;667;48.796;9.480;2022-12-15T08:00:07;37.70;;;23.80;;
1346;SDS011;667;48.796;9.480;2022-12-15T08:02:34;37.72;;;24.25;;
1346;SDS011;667;48.796;9.480;2022-12-15T08:05:00;45.20;;;24.47;;
1346;SDS011;667;48.796;9.480;2022-12-15T08:07:25;41.47;;;23.27;;
1346;SDS011;667;48.796;9.480;2022-12-15T08:09:51;38.77;;;22.93;;
1346;SDS011;667;48.796;9.480;2022-12-15T08:12:17;44.55;;;24.65;;
1346;SDS011;667;48.796;9.480;2022-12-15T08:14:43;39.77;;;23.70;;
1346;SDS011;667;48.796;9.480;2022-12-15T08:17:09;41.50;;;23.93;;
1346;SDS011;667;48.796;9.480;2022-12-15T08:19:34;38.30;;;23.87;;
1346;SDS011;667;48.796;9.480;2022-12-15T08:22:00;42.60;;;25.50;;
1346;SDS011;667;48.796;9.480;2022-12-15T08:24:26;44.90;;;25.83;;
1346;SDS011;667;48.796;9.480;2022-12-15T08:26:51;40.67;;;24.17;;
1346;SDS011;667;48.796;9.480;2022-12-15T08:29:17;43.40;;;27.90;;
1346;SDS011;667;48.796;9.480;2022-12-15T08:31:42;42.70;;;24.27;;
1346;SDS011;667;48.796;9.480;2022-12-15T08:34:08;39.97;;;24.83;;
1346;SDS011;667;48.796;9.480;2022-12-15T08:36:34;36.90;;;24.35;;
1346;SDS011;667;48.796;9.480;2022-12-15T08:39:00;45.23;;;28.50;;
1346;SDS011;667;48.796;9.480;2022-12-15T08:41:27;40.60;;;23.77;;
1346;SDS011;667;48.796;9.480;2022-12-15T08:43:55;39.53;;;25.25;;
1346;SDS011;667;48.796;9.480;2022-12-15T08:46:25;37.58;;;23.48;;
1346;SDS011;667;48.796;9.480;2022-12-15T08:48:53;39.58;;;23.77;;
1346;SDS011;667;48.796;9.480;2022-12-15T08:51:19;43.28;;;24.17;;
1346;SDS011;667;48.796;9.480;2022-12-15T08:53:46;39.80;;;23.85;;
1346;SDS011;667;48.796;9.480;2022-12-15T08:56:13;37.67;;;23.80;;
1346;SDS011;667;48.796;9.480;2022-12-15T08:58:41;40.28;;;23.90;;
1346;SDS011;667;48.796;9.480;2022-12-15T09:01:09;44.67;;;25.35;;
1346;SDS011;667;48.796;9.480;2022-12-15T09:03:37;41.63;;;25.75;;
1346;SDS011;667;48.796;9.480;2022-12-15T09:06:06;37.90;;;24.03;;
1346;SDS011;667;48.796;9.480;2022-12-15T09:08:36;41.95;;;24.65;;
1346;SDS011;667;48.796;9.480;2022-12-15T09:11:01;36.27;;;23.33;;
1346;SDS011;667;48.796;9.480;2022-12-15T09:13:29;40.03;;;23.50;;
1346;SDS011;667;48.796;9.480;2022-12-15T09:16:02;43.33;;;23.27;;
1346;SDS011;667;48.796;9.480;2022-12-15T09:18:29;44.97;;;25.15;;
1346;SDS011;667;48.796;9.480;2022-12-15T09:20:59;39.22;;;23.50;;
1346;SDS011;667;48.796;9.480;2022-12-15T09:23:27;45.88;;;23.65;;
1346;SDS011;667;48.796;9.480;2022-12-15T09:26:03;38.67;;;22.80;;
1346;SDS011;667;48.796;9.480;2022-12-15T09:28:35;36.20;;;21.52;;
1346;SDS011;667;48.796;9.480;2022-12-15T09:31:09;38.47;;;23.80;;
1346;SDS011;667;48.796;9.480;2022-12-15T09:33:37;41.85;;;23.60;;
1346;SDS011;667;48.796;9.480;2022-12-15T09:36:03;37.42;;;23.13;;
1346;SDS011;667;48.796;9.480;2022-12-15T09:38:32;42.67;;;24.42;;
1346;SDS011;667;48.796;9.480;2022-12-15T09:41:05;36.70;;;24.33;;
1346;SDS011;667;48.796;9.480;2022-12-15T09:43:38;42.15;;;26.65;;
1346;SDS011;667;48.796;9.480;2022-12-15T09:46:16;38.30;;;25.63;;
1346;SDS011;667;48.796;9.480;2022-12-15T09:48:45;52.83;;;31.55;;
1346;SDS011;667;48.796;9.480;2022-12-15T09:51:13;55.50;;;31.63;;
1346;SDS011;667;48.796;9.480;2022-12-15T09:53:42;39.13;;;25.58;;
1346;SDS011;667;48.796;9.480;2022-12-15T09:56:17;50.55;;;31.13;;
1346;SDS011;667;48.796;9.480;2022-12-15T09:59:02;46.28;;;29.25;;
1346;SDS011;667;48.796;9.480;2022-12-15T10:07:41;108.05;;;53.03;;
1346;SDS011;667;48.796;9.480;2022-12-15T10:12:41;61.92;;;35.13;;
1346;SDS011;667;48.796;9.480;2022-12-15T10:15:24;47.15;;;28.55;;
1346;SDS011;667;48.796;9.480;2022-12-15T10:20:43;41.78;;;25.42;;
1346;SDS011;667;48.796;9.480;2022-12-15T10:23:12;39.80;;;25.73;;
1346;SDS011;667;48.796;9.480;2022-12-15T10:25:41;40.10;;;25.08;;
1346;SDS011;667;48.796;9.480;2022-12-15T10:30:42;35.08;;;21.15;;
1346;SDS011;667;48.796;9.480;2022-12-15T10:33:17;39.50;;;22.92;;
1346;SDS011;667;48.796;9.480;2022-12-15T10:35:44;36.13;;;22.83;;
1346;SDS011;667;48.796;9.480;2022-12-15T10:40:54;37.80;;;23.55;;
1346;SDS011;667;48.796;9.480;2022-12-15T10:48:35;35.47;;;24.75;;
1346;SDS011;667;48.796;9.480;2022-12-15T10:51:14;37.40;;;23.65;;
1346;SDS011;667;48.796;9.480;2022-12-15T10:53:50;33.92;;;21.70;;
1346;SDS011;667;48.796;9.480;2022-12-15T10:56:26;32.85;;;21.45;;
1346;SDS011;667;48.796;9.480;2022-12-15T10:58:54;37.60;;;22.83;;
1346;SDS011;667;48.796;9.480;2022-12-15T11:01:25;35.58;;;24.15;;
1346;SDS011;667;48.796;9.480;2022-12-15T11:03:52;36.42;;;23.98;;
1346;SDS011;667;48.796;9.480;2022-12-15T11:06:20;38.42;;;25.52;;
1346;SDS011;667;48.796;9.480;2022-12-15T11:08:46;35.83;;;21.45;;
1346;SDS011;667;48.796;9.480;2022-12-15T11:11:26;37.05;;;22.95;;
1346;SDS011;667;48.796;9.480;2022-12-15T11:14:24;39.08;;;24.00;;
1346;SDS011;667;48.796;9.480;2022-12-15T11:16:54;34.55;;;23.08;;
1346;SDS011;667;48.796;9.480;2022-12-15T11:19:29;33.90;;;23.35;;
1346;SDS011;667;48.796;9.480;2022-12-15T11:22:11;36.78;;;23.90;;
1346;SDS011;667;48.796;9.480;2022-12-15T11:25:02;36.03;;;22.35;;
1346;SDS011;667;48.796;9.480;2022-12-15T11:27:31;34.20;;;23.77;;
1346;SDS011;667;48.796;9.480;2022-12-15T11:32:28;34.15;;;22.42;;
1346;SDS011;667;48.796;9.480;2022-12-15T11:34:57;32.92;;;21.13;;
1346;SDS011;667;48.796;9.480;2022-12-15T11:54:53;34.80;;;22.45;;
1346;SDS011;667;48.796;9.480;2022-12-15T11:57:41;32.90;;;21.73;;
1346;SDS011;667;48.796;9.480;2022-12-15T12:00:11;29.50;;;20.33;;
1346;SDS011;667;48.796;9.480;2022-12-15T12:02:55;37.85;;;24.08;;
1346;SDS011;667;48.796;9.480;2022-12-15T12:05:30;34.55;;;22.58;;
1346;SDS011;667;48.796;9.480;2022-12-15T12:10:49;33.78;;;21.20;;
1346;SDS011;667;48.796;9.480;2022-12-15T12:21:38;32.60;;;21.42;;
1346;SDS011;667;48.796;9.480;2022-12-15T12:24:20;35.90;;;23.35;;
1346;SDS011;667;48.796;9.480;2022-12-15T12:29:42;33.95;;;21.00;;
1346;SDS011;667;48.796;9.480;2022-12-15T12:32:22;30.75;;;20.70;;
1346;SDS011;667;48.796;9.480;2022-12-15T12:37:29;31.83;;;19.20;;
1346;SDS011;667;48.796;9.480;2022-12-15T12:40:44;35.60;;;23.42;;
1346;SDS011;667;48.796;9.480;2022-12-15T12:43:09;30.77;;;20.50;;
1346;SDS011;667;48.796;9.480;2022-12-15T12:45:51;32.97;;;20.52;;
1346;SDS011;667;48.796;9.480;2022-12-15T12:48:24;33.35;;;21.27;;
1346;SDS011;667;48.796;9.480;2022-12-15T12:51:21;33.90;;;21.45;;
1346;SDS011;667;48.796;9.480;2022-12-15T12:53:55;36.60;;;21.67;;
1346;SDS011;667;48.796;9.480;2022-12-15T12:56:29;34.30;;;20.63;;
1346;SDS011;667;48.796;9.480;2022-12-15T13:01:57;30.55;;;21.33;;
1346;SDS011;667;48.796;9.480;2022-12-15T13:04:39;32.08;;;19.33;;
1346;SDS011;667;48.796;9.480;2022-12-15T13:12:48;28.27;;;19.65;;
1346;SDS011;667;48.796;9.480;2022-12-15T13:17:57;29.75;;;19.10;;
1346;SDS011;667;48.796;9.480;2022-12-15T13:20:27;33.00;;;20.83;;
1346;SDS011;667;48.796;9.480;2022-12-15T13:28:23;31.52;;;21.80;;
1346;SDS011;667;48.796;9.480;2022-12-15T13:39:49;38.53;;;22.80;;
1346;SDS011;667;48.796;9.480;2022-12-15T13:44:31;31.58;;;20.20;;
1346;SDS011;667;48.796;9.480;2022-12-15T13:47:21;30.30;;;21.02;;
1346;SDS011;667;48.796;9.480;2022-12-15T13:52:53;35.60;;;21.35;;
1346;SDS011;667;48.796;9.480;2022-12-15T13:55:24;32.53;;;20.20;;
1346;SDS011;667;48.796;9.480;2022-12-15T13:57:59;29.58;;;20.25;;
1346;SDS011;667;48.796;9.480;2022-12-15T14:00:29;32.60;;;21.52;;
1346;SDS011;667;48.796;9.480;2022-12-15T14:03:06;36.00;;;21.92;;
1346;SDS011;667;48.796;9.480;2022-12-15T14:05:35;32.15;;;20.85;;
1346;SDS011;667;48.796;9.480;2022-12-15T14:08:04;30.67;;;20.38;;
1346;SDS011;667;48.796;9.480;2022-12-15T14:15:55;31.08;;;20.52;;
1346;SDS011;667;48.796;9.480;2022-12-15T14:18:42;32.40;;;21.67;;
1346;SDS011;667;48.796;9.480;2022-12-15T14:21:21;36.58;;;22.98;;
1346;SDS011;667;48.796;9.480;2022-12-15T14:23:50;33.85;;;20.98;;
1346;SDS011;667;48.796;9.480;2022-12-15T14:26:16;32.50;;;20.77;;
1346;SDS011;667;48.796;9.480;2022-12-15T14:28:43;34.03;;;23.10;;
1346;SDS011;667;48.796;9.480;2022-12-15T14:31:12;35.28;;;21.77;;
1346;SDS011;667;48.796;9.480;2022-12-15T14:33:44;32.78;;;21.80;;
1346;SDS011;667;48.796;9.480;2022-12-15T14:36:12;34.80;;;23.23;;
1346;SDS011;667;48.796;9.480;2022-12-15T14:38:52;34.80;;;20.95;;
1346;SDS011;667;48.796;9.480;2022-12-15T14:41:26;32.25;;;20.35;;
1346;SDS011;667;48.796;9.480;2022-12-15T14:43:56;36.67;;;22.80;;
1346;SDS011;667;48.796;9.480;2022-12-15T14:46:30;34.90;;;22.73;;
1346;SDS011;667;48.796;9.480;2022-12-15T14:51:24;32.38;;;21.20;;
1346;SDS011;667;48.796;9.480;2022-12-15T14:53:52;35.33;;;21.25;;
1346;SDS011;667;48.796;9.480;2022-12-15T14:58:44;37.50;;;23.80;;
1346;SDS011;667;48.796;9.480;2022-12-15T15:01:20;46.08;;;30.65;;
1346;SDS011;667;48.796;9.480;2022-12-15T15:04:20;43.00;;;29.27;;
1346;SDS011;667;48.796;9.480;2022-12-15T15:06:52;31.48;;;21.00;;
1346;SDS011;667;48.796;9.480;2022-12-15T15:11:57;37.30;;;24.95;;
1346;SDS011;667;48.796;9.480;2022-12-15T15:14:31;36.40;;;22.65;;
1346;SDS011;667;48.796;9.480;2022-12-15T15:17:15;38.90;;;21.38;;
1346;SDS011;667;48.796;9.480;2022-12-15T15:19:53;32.05;;;20.80;;
1346;SDS011;667;48.796;9.480;2022-12-15T15:24:50;30.50;;;20.20;;
1346;SDS011;667;48.796;9.480;2022-12-15T15:27:28;35.77;;;21.30;;
1346;SDS011;667;48.796;9.480;2022-12-15T15:32:55;32.80;;;20.67;;
1346;SDS011;667;48.796;9.480;2022-12-15T15:35:23;34.17;;;22.35;;
1346;SDS011;667;48.796;9.480;2022-12-15T15:38:03;34.75;;;22.40;;
1346;SDS011;667;48.796;9.480;2022-12-15T15:40:38;32.30;;;21.27;;
1346;SDS011;667;48.796;9.480;2022-12-15T15:43:10;33.73;;;21.67;;
1346;SDS011;667;48.796;9.480;2022-12-15T15:45:36;34.35;;;22.58;;
1346;SDS011;667;48.796;9.480;2022-12-15T15:48:03;33.22;;;21.55;;
1346;SDS011;667;48.796;9.480;2022-12-15T15:50:29;28.60;;;20.37;;
1346;SDS011;667;48.796;9.480;2022-12-15T15:52:56;29.10;;;18.85;;
1346;SDS011;667;48.796;9.480;2022-12-15T15:55:24;30.23;;;18.83;;
1346;SDS011;667;48.796;9.480;2022-12-15T15:57:55;28.63;;;19.58;;
1346;SDS011;667;48.796;9.480;2022-12-15T16:00:22;27.87;;;20.03;;
1346;SDS011;667;48.796;9.480;2022-12-15T16:02:48;29.02;;;19.10;;
1346;SDS011;667;48.796;9.480;2022-12-15T16:05:14;29.77;;;18.17;;
1346;SDS011;667;48.796;9.480;2022-12-15T16:07:40;25.43;;;18.20;;
1346;SDS011;667;48.796;9.480;2022-12-15T16:10:11;27.65;;;19.55;;
1346;SDS011;667;48.796;9.480;2022-12-15T16:12:39;30.35;;;18.23;;
1346;SDS011;667;48.796;9.480;2022-12-15T16:15:15;30.75;;;20.17;;
1346;SDS011;667;48.796;9.480;2022-12-15T16:17:43;31.52;;;19.52;;
1346;SDS011;667;48.796;9.480;2022-12-15T16:20:11;28.67;;;19.42;;
1346;SDS011;667;48.796;9.480;2022-12-15T16:22:38;27.75;;;19.73;;
1346;SDS011;667;48.796;9.480;2022-12-15T16:25:04;25.55;;;18.00;;
1346;SDS011;667;48.796;9.480;2022-12-15T16:27:36;27.30;;;18.90;;
1346;SDS011;667;48.796;9.480;2022-12-15T16:30:07;27.07;;;19.57;;
1346;SDS011;667;48.796;9.480;2022-12-15T16:32:38;30.00;;;20.35;;
1346;SDS011;667;48.796;9.480;2022-12-15T16:35:04;26.20;;;19.20;;
1346;SDS011;667;48.796;9.480;2022-12-15T16:37:31;30.08;;;18.65;;
1346;SDS011;667;48.796;9.480;2022-12-15T16:39:57;28.60;;;18.90;;
1346;SDS011;667;48.796;9.480;2022-12-15T16:42:22;30.17;;;20.37;;
1346;SDS011;667;48.796;9.480;2022-12-15T16:44:48;25.20;;;18.43;;
1346;SDS011;667;48.796;9.480;2022-12-15T16:47:14;28.13;;;19.40;;
1346;SDS011;667;48.796;9.480;2022-12-15T16:49:40;32.17;;;19.60;;
1346;SDS011;667;48.796;9.480;2022-12-15T16:52:07;29.00;;;17.93;;
1346;SDS011;667;48.796;9.480;2022-12-15T16:54:42;32.97;;;21.60;;
1346;SDS011;667;48.796;9.480;2022-12-15T16:57:11;29.73;;;21.13;;
1346;SDS011;667;48.796;9.480;2022-12-15T16:59:38;30.40;;;20.17;;
1346;SDS011;667;48.796;9.480;2022-12-15T17:02:15;28.77;;;21.17;;
1346;SDS011;667;48.796;9.480;2022-12-15T17:04:46;32.63;;;22.85;;
1346;SDS011;667;48.796;9.480;2022-12-15T17:07:12;30.27;;;20.03;;
1346;SDS011;667;48.796;9.480;2022-12-15T17:09:39;30.38;;;20.13;;
1346;SDS011;667;48.796;9.480;2022-12-15T17:12:04;29.47;;;21.10;;
1346;SDS011;667;48.796;9.480;2022-12-15T17:14:30;33.67;;;20.97;;
1346;SDS011;667;48.796;9.480;2022-12-15T17:16:56;28.75;;;19.52;;
1346;SDS011;667;48.796;9.480;2022-12-15T17:19:21;33.97;;;21.73;;
1346;SDS011;667;48.796;9.480;2022-12-15T17:21:48;27.70;;;19.13;;
1346;SDS011;667;48.796;9.480;2022-12-15T17:24:16;31.10;;;20.77;;
1346;SDS011;667;48.796;9.480;2022-12-15T17:26:44;28.85;;;19.23;;
1346;SDS011;667;48.796;9.480;2022-12-15T17:29:13;24.90;;;18.47;;
1346;SDS011;667;48.796;9.480;2022-12-15T17:31:41;31.50;;;20.63;;
1346;SDS011;667;48.796;9.480;2022-12-15T17:34:28;34.10;;;21.97;;
1346;SDS011;667;48.796;9.480;2022-12-15T17:36:55;30.80;;;19.98;;
1346;SDS011;667;48.796;9.480;2022-12-15T17:39:23;29.15;;;20.00;;
1346;SDS011;667;48.796;9.480;2022-12-15T17:41:50;29.55;;;19.70;;